createdAt,value
2023-03-22T00:01:28.766Z,11.14
2023-03-22T00:03:57.000Z,11.19
2023-03-22T00:06:25.635Z,11.23
2023-03-22T00:08:55.130Z,11.25
2023-03-22T00:11:25.971Z,11.24
2023-03-22T00:13:55.016Z,11.19
2023-03-22T00:16:23.593Z,11.24
2023-03-22T00:18:51.830Z,11.26
2023-03-22T00:21:20.027Z,11.21
2023-03-22T00:23:48.169Z,11.20
2023-03-22T00:26:16.446Z,11.17
2023-03-22T00:28:46.677Z,11.18
2023-03-22T00:31:15.984Z,11.13
2023-03-22T00:33:44.168Z,11.13
2023-03-22T00:36:13.886Z,11.02
2023-03-22T00:38:43.968Z,11.06
2023-03-22T00:41:14.083Z,11.06
2023-03-22T00:43:42.541Z,11.03
2023-03-22T00:46:13.518Z,11.01
2023-03-22T00:48:42.035Z,11.00
2023-03-22T00:51:12.775Z,10.91
2023-03-22T00:53:43.522Z,10.89
2023-03-22T00:56:15.890Z,10.96
2023-03-22T00:58:57.060Z,10.85
2023-03-22T01:01:26.922Z,10.91
2023-03-22T01:03:56.017Z,10.88
2023-03-22T01:06:24.132Z,10.81
2023-03-22T01:08:55.257Z,10.78
2023-03-22T01:11:23.497Z,10.75
2023-03-22T01:13:57.663Z,10.61
2023-03-22T01:16:27.760Z,10.61
2023-03-22T01:18:55.897Z,10.64
2023-03-22T01:21:24.032Z,10.60
2023-03-22T01:23:52.146Z,10.58
2023-03-22T01:26:20.287Z,10.59
2023-03-22T01:28:48.359Z,10.58
2023-03-22T01:31:16.513Z,10.60
2023-03-22T01:33:46.125Z,10.61
2023-03-22T01:36:14.244Z,10.40
2023-03-22T01:38:42.371Z,10.55
2023-03-22T01:41:10.553Z,10.60
2023-03-22T01:43:41.901Z,10.64
2023-03-22T01:46:10.321Z,10.62
2023-03-22T01:48:46.271Z,10.48
2023-03-22T01:51:19.241Z,10.46
2023-03-22T01:54:25.722Z,10.40
2023-03-22T01:56:54.175Z,10.42
2023-03-22T01:59:32.676Z,10.44
2023-03-22T02:02:19.244Z,10.42
2023-03-22T02:04:58.193Z,10.22
2023-03-22T02:07:31.918Z,10.33
2023-03-22T02:10:02.474Z,10.34
2023-03-22T02:12:53.596Z,10.29
2023-03-22T02:15:42.876Z,10.33
2023-03-22T02:18:44.958Z,10.25
2023-03-22T02:21:46.020Z,10.19
2023-03-22T02:24:48.301Z,9.88
2023-03-22T02:27:48.065Z,9.96
2023-03-22T02:30:45.912Z,9.95
2023-03-22T02:33:41.559Z,9.98
2023-03-22T02:36:31.016Z,9.99
2023-03-22T02:39:15.558Z,9.98
2023-03-22T02:42:05.000Z,9.97
2023-03-22T02:44:42.246Z,9.97
2023-03-22T02:47:22.433Z,9.91
2023-03-22T02:49:57.500Z,9.72
2023-03-22T02:52:31.900Z,9.67
2023-03-22T02:55:08.985Z,9.67
2023-03-22T02:57:42.006Z,9.65
2023-03-22T03:00:14.240Z,9.66
2023-03-22T03:02:45.430Z,9.54
2023-03-22T03:05:16.234Z,9.47
2023-03-22T03:07:47.802Z,9.28
2023-03-22T03:10:19.728Z,9.25
2023-03-22T03:12:48.050Z,9.18
2023-03-22T03:15:18.635Z,9.14
2023-03-22T03:17:58.685Z,9.06
2023-03-22T03:20:39.007Z,8.78
2023-03-22T03:23:17.787Z,8.66
2023-03-22T03:25:59.070Z,8.77
2023-03-22T03:28:38.470Z,8.82
2023-03-22T03:31:19.797Z,8.79
2023-03-22T03:33:56.288Z,8.52
2023-03-22T03:36:27.420Z,8.57
2023-03-22T03:38:58.010Z,8.53
2023-03-22T03:41:31.334Z,8.51
2023-03-22T03:44:00.654Z,8.54
2023-03-22T03:46:29.529Z,8.46
2023-03-22T03:48:59.366Z,8.32
2023-03-22T03:51:28.761Z,8.30
2023-03-22T03:53:56.867Z,8.29
2023-03-22T03:56:25.184Z,8.31
2023-03-22T03:58:55.769Z,8.20
2023-03-22T04:01:24.251Z,8.35
2023-03-22T04:04:15.342Z,8.45
2023-03-22T04:06:56.838Z,8.49
2023-03-22T04:09:27.512Z,8.57
2023-03-22T04:12:00.823Z,8.46
2023-03-22T04:14:30.473Z,8.49
2023-03-22T04:17:02.596Z,8.47
2023-03-22T04:19:32.623Z,8.39
2023-03-22T04:22:01.183Z,8.47
2023-03-22T04:24:29.446Z,8.38
2023-03-22T04:26:57.572Z,8.35
2023-03-22T04:29:32.360Z,8.40
2023-03-22T04:32:16.622Z,8.45
2023-03-22T04:34:44.934Z,8.38
2023-03-22T04:37:15.657Z,8.27
2023-03-22T04:39:50.617Z,8.35
2023-03-22T04:42:32.437Z,8.43
2023-03-22T04:45:29.318Z,8.23
2023-03-22T04:48:01.874Z,8.25
2023-03-22T04:50:32.365Z,8.36
2023-03-22T04:53:04.085Z,8.43
2023-03-22T04:55:34.224Z,8.47
2023-03-22T04:58:03.421Z,8.38
2023-03-22T05:00:32.914Z,8.45
2023-03-22T05:03:04.172Z,8.42
2023-03-22T05:05:41.352Z,8.44
2023-03-22T05:08:09.725Z,8.47
2023-03-22T05:10:41.414Z,8.45
2023-03-22T05:13:10.055Z,8.27
2023-03-22T05:15:44.418Z,8.31
2023-03-22T05:18:15.547Z,8.35
2023-03-22T05:20:45.666Z,8.46
2023-03-22T05:23:19.502Z,8.48
2023-03-22T05:25:52.333Z,8.26
2023-03-22T05:28:22.513Z,8.16
2023-03-22T05:31:15.584Z,8.26
2023-03-22T05:33:50.531Z,8.21
2023-03-22T05:36:23.001Z,8.41
2023-03-22T05:39:10.879Z,8.56
2023-03-22T05:41:39.161Z,8.35
2023-03-22T05:44:07.529Z,8.38
2023-03-22T05:46:39.791Z,8.66
2023-03-22T05:49:31.148Z,8.87
2023-03-22T05:51:59.359Z,8.90
2023-03-22T05:54:38.435Z,8.97
2023-03-22T05:57:07.427Z,8.93
2023-03-22T05:59:35.517Z,9.20
2023-03-22T06:02:05.711Z,9.47
2023-03-22T06:04:33.793Z,9.39
2023-03-22T06:07:06.435Z,9.67
2023-03-22T06:09:54.523Z,9.87
2023-03-22T06:12:27.223Z,9.83
2023-03-22T06:15:13.041Z,10.07
2023-03-22T06:17:58.822Z,10.26
2023-03-22T06:20:29.699Z,10.39
2023-03-22T06:23:03.416Z,10.39
2023-03-22T06:25:31.624Z,10.09
2023-03-22T06:28:00.664Z,10.23
2023-03-22T06:30:30.496Z,10.45
2023-03-22T06:33:14.727Z,10.36
2023-03-22T06:35:46.351Z,10.44
2023-03-22T06:38:20.841Z,10.61
2023-03-22T06:40:49.085Z,10.42
2023-03-22T06:43:17.300Z,10.69
2023-03-22T06:45:48.806Z,10.91
2023-03-22T06:48:23.733Z,11.00
2023-03-22T06:51:06.503Z,10.84
2023-03-22T06:53:36.512Z,11.07
2023-03-22T06:56:06.083Z,10.79
2023-03-22T06:58:45.049Z,11.01
2023-03-22T07:01:13.136Z,11.15
2023-03-22T07:03:42.817Z,11.31
2023-03-22T07:06:14.912Z,11.15
2023-03-22T07:08:46.952Z,11.30
2023-03-22T07:11:19.060Z,11.23
2023-03-22T07:13:51.809Z,11.39
2023-03-22T07:16:22.920Z,11.35
2023-03-22T07:18:56.013Z,11.61
2023-03-22T07:21:24.692Z,11.48
2023-03-22T07:23:58.289Z,11.77
2023-03-22T07:26:30.632Z,11.55
2023-03-22T07:29:00.107Z,11.85
2023-03-22T07:31:31.687Z,11.96
2023-03-22T07:34:06.948Z,12.06
2023-03-22T07:36:58.061Z,12.20
2023-03-22T07:39:28.974Z,12.36
2023-03-22T07:41:57.550Z,12.35
2023-03-22T07:44:25.629Z,12.36
2023-03-22T07:47:12.758Z,12.58
2023-03-22T07:49:49.658Z,12.73
2023-03-22T07:52:21.875Z,12.43
2023-03-22T07:54:50.269Z,12.54
2023-03-22T07:57:18.814Z,12.69
2023-03-22T07:59:53.075Z,12.45
2023-03-22T08:02:21.440Z,12.56
2023-03-22T08:04:56.507Z,12.79
2023-03-22T08:07:42.410Z,12.66
2023-03-22T08:10:12.820Z,12.51
2023-03-22T08:12:41.379Z,12.98
2023-03-22T08:15:16.687Z,13.13
2023-03-22T08:17:45.477Z,13.23
2023-03-22T08:20:21.197Z,13.02
2023-03-22T08:22:55.553Z,13.16
2023-03-22T08:25:49.719Z,13.32
2023-03-22T08:28:17.895Z,13.44
2023-03-22T08:30:48.183Z,13.37
2023-03-22T08:33:17.149Z,13.27
2023-03-22T08:35:48.107Z,13.61
2023-03-22T08:38:16.257Z,13.72
2023-03-22T08:40:48.715Z,13.87
2023-03-22T08:43:20.764Z,14.00
2023-03-22T08:45:49.026Z,14.26
2023-03-22T08:48:20.842Z,14.23
2023-03-22T08:51:06.578Z,14.24
2023-03-22T08:53:49.740Z,14.47
2023-03-22T08:56:41.892Z,14.68
2023-03-22T08:59:20.504Z,15.00
2023-03-22T09:01:59.055Z,15.11
2023-03-22T09:04:27.442Z,15.34
2023-03-22T09:06:57.614Z,15.50
2023-03-22T09:09:25.744Z,15.67
2023-03-22T09:11:56.312Z,15.67
2023-03-22T09:14:24.802Z,15.90
2023-03-22T09:16:54.459Z,15.40
2023-03-22T09:19:22.707Z,15.82
2023-03-22T09:21:51.089Z,15.84
2023-03-22T09:24:31.536Z,16.07
2023-03-22T09:27:03.432Z,16.16
2023-03-22T09:29:31.931Z,16.21
2023-03-22T09:32:03.477Z,16.30
2023-03-22T09:34:35.004Z,16.35
2023-03-22T09:37:04.941Z,16.28
2023-03-22T09:39:44.838Z,16.52
2023-03-22T09:42:25.878Z,16.38
2023-03-22T09:44:56.157Z,16.58
2023-03-22T09:47:44.164Z,16.71
2023-03-22T09:50:16.512Z,16.89
2023-03-22T09:52:45.160Z,16.66
2023-03-22T09:55:20.744Z,16.74
2023-03-22T09:57:56.283Z,16.86
2023-03-22T10:00:34.599Z,16.94
2023-03-22T10:03:14.007Z,17.34
2023-03-22T10:05:48.289Z,17.62
2023-03-22T10:08:31.171Z,17.69
2023-03-22T10:11:01.540Z,17.89
2023-03-22T10:13:37.750Z,18.01
2023-03-22T10:16:11.772Z,18.28
2023-03-22T10:18:43.827Z,17.83
2023-03-22T10:21:14.484Z,18.34
2023-03-22T10:23:45.890Z,18.49
2023-03-22T10:26:23.980Z,18.25
2023-03-22T10:29:03.506Z,18.54
2023-03-22T10:31:32.859Z,18.39
2023-03-22T10:34:08.366Z,18.13
2023-03-22T10:36:42.476Z,18.15
2023-03-22T10:39:17.304Z,18.38
2023-03-22T10:41:48.633Z,18.78
2023-03-22T10:44:20.534Z,18.96
2023-03-22T10:46:52.054Z,18.66
2023-03-22T10:49:26.180Z,18.48
2023-03-22T10:51:59.910Z,18.41
2023-03-22T10:54:28.161Z,18.32
2023-03-22T10:56:57.637Z,18.47
2023-03-22T10:59:48.392Z,18.67
2023-03-22T11:02:22.251Z,18.84
2023-03-22T11:04:52.646Z,19.10
2023-03-22T11:07:39.423Z,19.09
2023-03-22T11:10:21.856Z,18.98
2023-03-22T11:12:54.418Z,19.09
2023-03-22T11:15:29.948Z,18.94
2023-03-22T11:18:06.557Z,19.31
2023-03-22T11:20:36.542Z,19.29
2023-03-22T11:23:07.027Z,19.53
2023-03-22T11:25:37.668Z,19.38
2023-03-22T11:28:16.637Z,19.96
2023-03-22T11:31:00.462Z,18.92
2023-03-22T11:33:28.858Z,18.67
2023-03-22T11:35:58.227Z,18.98
2023-03-22T11:38:30.622Z,19.42
2023-03-22T11:41:02.687Z,19.78
2023-03-22T11:43:37.005Z,19.38
2023-03-22T11:46:06.394Z,19.40
2023-03-22T11:48:36.702Z,19.48
2023-03-22T11:51:09.771Z,19.86
2023-03-22T11:53:40.931Z,18.68
2023-03-22T11:56:12.086Z,19.49
2023-03-22T11:58:56.387Z,20.31
2023-03-22T12:01:34.532Z,20.31
2023-03-22T12:04:06.440Z,19.86
2023-03-22T12:06:39.226Z,18.27
2023-03-22T12:09:22.898Z,18.11
2023-03-22T12:11:54.313Z,18.53
2023-03-22T12:14:29.273Z,19.43
2023-03-22T12:16:59.748Z,18.74
2023-03-22T12:19:43.546Z,18.41
2023-03-22T12:22:14.393Z,19.01
2023-03-22T12:24:43.273Z,19.92
2023-03-22T12:27:18.680Z,20.57
2023-03-22T12:29:54.803Z,20.39
2023-03-22T12:32:27.667Z,20.78
2023-03-22T12:35:16.044Z,21.61
2023-03-22T12:37:49.697Z,22.21
2023-03-22T12:40:24.451Z,22.19
2023-03-22T12:43:02.294Z,20.91
2023-03-22T12:45:37.165Z,21.18
2023-03-22T12:48:11.440Z,21.87
2023-03-22T12:50:44.479Z,22.22
2023-03-22T12:53:16.475Z,22.56
2023-03-22T12:55:46.241Z,22.84
2023-03-22T12:58:18.178Z,22.78
2023-03-22T13:00:51.004Z,22.35
2023-03-22T13:03:28.975Z,23.71
2023-03-22T13:06:07.717Z,22.71
2023-03-22T13:09:13.215Z,22.56
2023-03-22T13:11:41.338Z,22.08
2023-03-22T13:14:12.986Z,22.90
2023-03-22T13:16:52.596Z,22.61
2023-03-22T13:19:38.037Z,21.99
2023-03-22T13:22:21.130Z,22.39
2023-03-22T13:25:29.717Z,22.75
2023-03-22T13:28:00.091Z,23.24
2023-03-22T13:30:33.357Z,23.62
2023-03-22T13:33:14.321Z,23.15
2023-03-22T13:35:46.580Z,22.93
2023-03-22T13:38:22.308Z,22.48
2023-03-22T13:41:00.789Z,22.91
2023-03-22T13:43:32.757Z,22.61
2023-03-22T13:46:29.435Z,23.49
2023-03-22T13:49:26.534Z,23.01
2023-03-22T13:51:56.916Z,21.21
2023-03-22T13:54:28.732Z,21.55
2023-03-22T13:57:00.909Z,20.96
2023-03-22T13:59:33.890Z,20.78
2023-03-22T14:02:05.921Z,21.10
2023-03-22T14:04:42.686Z,21.28
2023-03-22T14:07:24.198Z,21.12
2023-03-22T14:09:55.768Z,21.57
2023-03-22T14:12:29.742Z,22.33
2023-03-22T14:15:02.601Z,22.39
2023-03-22T14:17:36.276Z,20.34
2023-03-22T14:20:10.701Z,20.91
